sensor_id;sensor_type;location;lat;lon;timestamp;temperature;humidity
9175;DHT22;54374;50.196;8.050;2022-08-16T00:01:29;16.30;99.90
9175;DHT22;54374;50.196;8.050;2022-08-16T00:03:57;16.30;99.90
9175;DHT22;54374;50.196;8.050;2022-08-16T00:06:24;16.20;99.90
9175;DHT22;54374;50.196;8.050;2022-08-16T00:08:51;16.20;99.90
9175;DHT22;54374;50.196;8.050;2022-08-16T00:11:18;16.20;99.90
9175;DHT22;54374;50.196;8.050;2022-08-16T00:13:47;16.20;99.90
9175;DHT22;54374;50.196;8.050;2022-08-16T00:16:15;16.20;99.90
9175;DHT22;54374;50.196;8.050;2022-08-16T00:18:42;16.10;99.90
9175;DHT22;54374;50.196;8.050;2022-08-16T00:21:10;16.10;99.90
9175;DHT22;54374;50.196;8.050;2022-08-16T00:23:38;16.10;99.90
9175;DHT22;54374;50.196;8.050;2022-08-16T00:26:05;16.10;99.90
9175;DHT22;54374;50.196;8.050;2022-08-16T00:28:31;16.00;99.90
9175;DHT22;54374;50.196;8.050;2022-08-16T00:30:58;16.00;99.90
9175;DHT22;54374;50.196;8.050;2022-08-16T00:33:27;16.00;99.90
9175;DHT22;54374;50.196;8.050;2022-08-16T00:35:54;16.00;99.90
9175;DHT22;54374;50.196;8.050;2022-08-16T00:38:21;15.90;99.90
9175;DHT22;54374;50.196;8.050;2022-08-16T00:40:51;15.90;99.90
9175;DHT22;54374;50.196;8.050;2022-08-16T00:43:21;15.90;99.90
9175;DHT22;54374;50.196;8.050;2022-08-16T00:45:53;16.00;99.90
9175;DHT22;54374;50.196;8.050;2022-08-16T00:48:23;16.00;99.90
9175;DHT22;54374;50.196;8.050;2022-08-16T00:50:51;16.00;99.90
9175;DHT22;54374;50.196;8.050;2022-08-16T00:53:19;16.00;99.90
9175;DHT22;54374;50.196;8.050;2022-08-16T00:55:48;16.00;99.90
9175;DHT22;54374;50.196;8.050;2022-08-16T00:58:17;16.10;99.90
9175;DHT22;54374;50.196;8.050;2022-08-16T01:00:46;16.10;99.90
9175;DHT22;54374;50.196;8.050;2022-08-16T01:03:14;16.10;99.90
9175;DHT22;54374;50.196;8.050;2022-08-16T01:05:43;16.00;99.90
9175;DHT22;54374;50.196;8.050;2022-08-16T01:08:13;16.00;99.90
9175;DHT22;54374;50.196;8.050;2022-08-16T01:10:42;16.10;99.90
9175;DHT22;54374;50.196;8.050;2022-08-16T01:13:13;16.00;99.90
9175;DHT22;54374;50.196;8.050;2022-08-16T01:15:46;16.00;99.90
9175;DHT22;54374;50.196;8.050;2022-08-16T01:18:17;16.00;99.90
9175;DHT22;54374;50.196;8.050;2022-08-16T01:20:51;15.80;99.90
9175;DHT22;54374;50.196;8.050;2022-08-16T01:23:28;15.90;99.90
9175;DHT22;54374;50.196;8.050;2022-08-16T01:26:03;15.90;99.90
9175;DHT22;54374;50.196;8.050;2022-08-16T01:28:31;15.90;99.90
9175;DHT22;54374;50.196;8.050;2022-08-16T01:30:59;15.90;99.90
9175;DHT22;54374;50.196;8.050;2022-08-16T01:33:27;15.80;99.90
9175;DHT22;54374;50.196;8.050;2022-08-16T01:35:56;15.80;99.90
9175;DHT22;54374;50.196;8.050;2022-08-16T01:38:29;15.80;99.90
9175;DHT22;54374;50.196;8.050;2022-08-16T01:41:01;15.70;99.90
9175;DHT22;54374;50.196;8.050;2022-08-16T01:43:31;15.70;99.90
9175;DHT22;54374;50.196;8.050;2022-08-16T01:46:01;15.60;99.90
9175;DHT22;54374;50.196;8.050;2022-08-16T01:48:30;15.60;99.90
9175;DHT22;54374;50.196;8.050;2022-08-16T01:50:59;15.60;99.90
9175;DHT22;54374;50.196;8.050;2022-08-16T01:53:28;15.60;99.90
9175;DHT22;54374;50.196;8.050;2022-08-16T01:56:04;15.50;99.90
9175;DHT22;54374;50.196;8.050;2022-08-16T01:58:35;15.50;99.90
9175;DHT22;54374;50.196;8.050;2022-08-16T02:04:45;15.40;99.90
9175;DHT22;54374;50.196;8.050;2022-08-16T02:07:13;15.40;99.90
9175;DHT22;54374;50.196;8.050;2022-08-16T02:09:43;15.30;99.90
9175;DHT22;54374;50.196;8.050;2022-08-16T02:12:11;15.30;99.90
9175;DHT22;54374;50.196;8.050;2022-08-16T02:14:39;15.20;99.90
9175;DHT22;54374;50.196;8.050;2022-08-16T02:17:08;15.10;99.90
9175;DHT22;54374;50.196;8.050;2022-08-16T02:19:39;15.10;99.90
9175;DHT22;54374;50.196;8.050;2022-08-16T02:22:08;15.00;99.90
9175;DHT22;54374;50.196;8.050;2022-08-16T02:24:36;15.00;99.90
9175;DHT22;54374;50.196;8.050;2022-08-16T02:27:04;15.00;99.90
9175;DHT22;54374;50.196;8.050;2022-08-16T02:29:33;15.00;99.90
9175;DHT22;54374;50.196;8.050;2022-08-16T02:32:02;15.00;99.90
9175;DHT22;54374;50.196;8.050;2022-08-16T02:34:30;14.90;99.90
9175;DHT22;54374;50.196;8.050;2022-08-16T02:36:56;14.80;99.90
9175;DHT22;54374;50.196;8.050;2022-08-16T02:39:27;14.70;99.90
9175;DHT22;54374;50.196;8.050;2022-08-16T02:41:54;14.70;99.90
9175;DHT22;54374;50.196;8.050;2022-08-16T02:44:23;14.80;99.90
9175;DHT22;54374;50.196;8.050;2022-08-16T02:46:50;14.60;99.90
9175;DHT22;54374;50.196;8.050;2022-08-16T02:49:19;14.60;99.90
9175;DHT22;54374;50.196;8.050;2022-08-16T02:51:47;14.50;99.90
9175;DHT22;54374;50.196;8.050;2022-08-16T02:54:15;14.50;99.90
9175;DHT22;54374;50.196;8.050;2022-08-16T02:56:43;14.40;99.90
9175;DHT22;54374;50.196;8.050;2022-08-16T02:59:11;14.50;99.90
9175;DHT22;54374;50.196;8.050;2022-08-16T03:01:38;14.50;99.90
9175;DHT22;54374;50.196;8.050;2022-08-16T03:04:21;14.50;99.90
9175;DHT22;54374;50.196;8.050;2022-08-16T03:06:48;14.30;99.90
9175;DHT22;54374;50.196;8.050;2022-08-16T03:09:35;14.30;99.90
9175;DHT22;54374;50.196;8.050;2022-08-16T03:12:03;14.30;99.90
9175;DHT22;54374;50.196;8.050;2022-08-16T03:14:30;14.30;99.90
9175;DHT22;54374;50.196;8.050;2022-08-16T03:16:58;14.30;99.90
9175;DHT22;54374;50.196;8.050;2022-08-16T03:19:27;14.30;99.90
9175;DHT22;54374;50.196;8.050;2022-08-16T03:21:54;14.30;99.90
9175;DHT22;54374;50.196;8.050;2022-08-16T03:24:21;14.20;99.90
9175;DHT22;54374;50.196;8.050;2022-08-16T03:26:49;14.10;99.90
9175;DHT22;54374;50.196;8.050;2022-08-16T03:29:16;14.10;99.90
9175;DHT22;54374;50.196;8.050;2022-08-16T03:31:43;14.10;99.90
9175;DHT22;54374;50.196;8.050;2022-08-16T03:34:10;14.10;99.90
9175;DHT22;54374;50.196;8.050;2022-08-16T03:36:38;14.10;99.90
9175;DHT22;54374;50.196;8.050;2022-08-16T03:39:05;14.10;99.90
9175;DHT22;54374;50.196;8.050;2022-08-16T03:41:32;14.00;99.90
9175;DHT22;54374;50.196;8.050;2022-08-16T03:44:00;14.00;99.90
9175;DHT22;54374;50.196;8.050;2022-08-16T03:46:30;14.00;99.90
9175;DHT22;54374;50.196;8.050;2022-08-16T03:48:58;14.00;99.90
9175;DHT22;54374;50.196;8.050;2022-08-16T03:51:25;13.90;99.90
9175;DHT22;54374;50.196;8.050;2022-08-16T03:54:00;13.90;99.90
9175;DHT22;54374;50.196;8.050;2022-08-16T03:56:30;13.90;99.90
9175;DHT22;54374;50.196;8.050;2022-08-16T03:58:59;14.00;99.90
9175;DHT22;54374;50.196;8.050;2022-08-16T04:01:34;13.90;99.90
9175;DHT22;54374;50.196;8.050;2022-08-16T04:04:01;13.80;99.90
9175;DHT22;54374;50.196;8.050;2022-08-16T04:06:29;13.80;99.90
9175;DHT22;54374;50.196;8.050;2022-08-16T04:08:56;13.80;99.90
9175;DHT22;54374;50.196;8.050;2022-08-16T04:11:25;13.90;99.90
9175;DHT22;54374;50.196;8.050;2022-08-16T04:13:53;13.80;99.90
9175;DHT22;54374;50.196;8.050;2022-08-16T04:16:21;13.80;99.90
9175;DHT22;54374;50.196;8.050;2022-08-16T04:18:48;13.70;99.90
9175;DHT22;54374;50.196;8.050;2022-08-16T04:21:15;13.70;99.90
9175;DHT22;54374;50.196;8.050;2022-08-16T04:23:42;13.60;99.90
9175;DHT22;54374;50.196;8.050;2022-08-16T04:26:09;13.60;99.90
9175;DHT22;54374;50.196;8.050;2022-08-16T04:28:40;13.60;99.90
9175;DHT22;54374;50.196;8.050;2022-08-16T04:31:09;13.60;99.90
9175;DHT22;54374;50.196;8.050;2022-08-16T04:33:39;13.60;99.90
9175;DHT22;54374;50.196;8.050;2022-08-16T04:36:07;13.60;99.90
9175;DHT22;54374;50.196;8.050;2022-08-16T04:38:34;13.70;99.90
9175;DHT22;54374;50.196;8.050;2022-08-16T04:41:02;13.60;99.90
9175;DHT22;54374;50.196;8.050;2022-08-16T04:43:31;13.50;99.90
9175;DHT22;54374;50.196;8.050;2022-08-16T04:46:04;13.60;99.90
9175;DHT22;54374;50.196;8.050;2022-08-16T04:48:36;13.60;99.90
9175;DHT22;54374;50.196;8.050;2022-08-16T04:51:10;13.70;99.90
9175;DHT22;54374;50.196;8.050;2022-08-16T04:53:43;13.70;99.90
9175;DHT22;54374;50.196;8.050;2022-08-16T04:56:10;13.80;99.90
9175;DHT22;54374;50.196;8.050;2022-08-16T04:58:38;13.80;99.90
9175;DHT22;54374;50.196;8.050;2022-08-16T05:01:06;13.80;99.90
9175;DHT22;54374;50.196;8.050;2022-08-16T05:03:34;13.80;99.90
9175;DHT22;54374;50.196;8.050;2022-08-16T05:06:01;13.80;99.90
9175;DHT22;54374;50.196;8.050;2022-08-16T05:08:33;13.80;99.90
9175;DHT22;54374;50.196;8.050;2022-08-16T05:11:18;13.80;99.90
9175;DHT22;54374;50.196;8.050;2022-08-16T05:13:48;13.80;99.90
9175;DHT22;54374;50.196;8.050;2022-08-16T05:16:23;13.80;99.90
9175;DHT22;54374;50.196;8.050;2022-08-16T05:18:58;13.90;99.90
9175;DHT22;54374;50.196;8.050;2022-08-16T05:21:31;14.10;99.90
9175;DHT22;54374;50.196;8.050;2022-08-16T05:23:59;14.40;99.90
9175;DHT22;54374;50.196;8.050;2022-08-16T05:26:30;14.80;99.90
9175;DHT22;54374;50.196;8.050;2022-08-16T05:28:58;14.40;99.90
9175;DHT22;54374;50.196;8.050;2022-08-16T05:31:28;14.50;99.90
9175;DHT22;54374;50.196;8.050;2022-08-16T05:33:56;14.60;99.90
9175;DHT22;54374;50.196;8.050;2022-08-16T05:36:24;14.60;99.90
9175;DHT22;54374;50.196;8.050;2022-08-16T05:38:51;14.70;99.90
9175;DHT22;54374;50.196;8.050;2022-08-16T05:41:18;14.80;99.90
9175;DHT22;54374;50.196;8.050;2022-08-16T05:43:45;14.90;99.90
9175;DHT22;54374;50.196;8.050;2022-08-16T05:46:15;15.10;99.90
9175;DHT22;54374;50.196;8.050;2022-08-16T05:48:45;15.10;99.90
9175;DHT22;54374;50.196;8.050;2022-08-16T05:51:13;15.30;99.90
9175;DHT22;54374;50.196;8.050;2022-08-16T05:53:39;15.40;99.90
9175;DHT22;54374;50.196;8.050;2022-08-16T05:56:10;15.50;99.90
9175;DHT22;54374;50.196;8.050;2022-08-16T05:58:40;15.60;99.90
9175;DHT22;54374;50.196;8.050;2022-08-16T06:01:10;15.80;99.90
9175;DHT22;54374;50.196;8.050;2022-08-16T06:03:39;15.80;99.90
9175;DHT22;54374;50.196;8.050;2022-08-16T06:06:15;15.90;99.90
9175;DHT22;54374;50.196;8.050;2022-08-16T06:08:42;16.10;99.90
9175;DHT22;54374;50.196;8.050;2022-08-16T06:11:09;16.30;99.90
9175;DHT22;54374;50.196;8.050;2022-08-16T06:13:37;16.40;99.90
9175;DHT22;54374;50.196;8.050;2022-08-16T06:16:05;16.50;99.90
9175;DHT22;54374;50.196;8.050;2022-08-16T06:18:36;16.60;99.90
9175;DHT22;54374;50.196;8.050;2022-08-16T06:21:03;16.80;99.90
9175;DHT22;54374;50.196;8.050;2022-08-16T06:23:32;17.00;99.90
9175;DHT22;54374;50.196;8.050;2022-08-16T06:26:03;17.20;99.90
9175;DHT22;54374;50.196;8.050;2022-08-16T06:28:33;17.30;99.90
9175;DHT22;54374;50.196;8.050;2022-08-16T06:31:01;17.50;99.90
9175;DHT22;54374;50.196;8.050;2022-08-16T06:33:30;17.70;99.90
9175;DHT22;54374;50.196;8.050;2022-08-16T06:35:57;17.90;99.90
9175;DHT22;54374;50.196;8.050;2022-08-16T06:38:24;18.10;99.90
9175;DHT22;54374;50.196;8.050;2022-08-16T06:40:53;18.30;99.90
9175;DHT22;54374;50.196;8.050;2022-08-16T06:43:20;18.40;99.90
9175;DHT22;54374;50.196;8.050;2022-08-16T06:45:54;18.70;99.90
9175;DHT22;54374;50.196;8.050;2022-08-16T06:48:26;18.90;99.90
9175;DHT22;54374;50.196;8.050;2022-08-16T06:50:53;19.00;99.90
9175;DHT22;54374;50.196;8.050;2022-08-16T06:53:22;19.30;99.90
9175;DHT22;54374;50.196;8.050;2022-08-16T06:55:58;19.50;99.90
9175;DHT22;54374;50.196;8.050;2022-08-16T06:58:35;19.60;99.90
9175;DHT22;54374;50.196;8.050;2022-08-16T07:01:07;19.80;99.90
9175;DHT22;54374;50.196;8.050;2022-08-16T07:03:36;20.00;99.90
9175;DHT22;54374;50.196;8.050;2022-08-16T07:06:05;20.10;99.90
9175;DHT22;54374;50.196;8.050;2022-08-16T07:08:40;20.40;99.90
9175;DHT22;54374;50.196;8.050;2022-08-16T07:11:10;20.60;99.90
9175;DHT22;54374;50.196;8.050;2022-08-16T08:10:35;22.10;99.90
9175;DHT22;54374;50.196;8.050;2022-08-16T08:13:04;22.10;99.90
9175;DHT22;54374;50.196;8.050;2022-08-16T08:15:31;21.90;99.90
9175;DHT22;54374;50.196;8.050;2022-08-16T08:17:58;21.90;99.90
9175;DHT22;54374;50.196;8.050;2022-08-16T08:20:30;22.00;99.90
9175;DHT22;54374;50.196;8.050;2022-08-16T08:22:59;22.00;99.90
9175;DHT22;54374;50.196;8.050;2022-08-16T08:25:38;22.20;99.90
9175;DHT22;54374;50.196;8.050;2022-08-16T08:28:06;22.30;99.90
9175;DHT22;54374;50.196;8.050;2022-08-16T08:30:33;22.60;99.90
9175;DHT22;54374;50.196;8.050;2022-08-16T08:33:01;22.80;99.90
9175;DHT22;54374;50.196;8.050;2022-08-16T08:35:34;22.90;99.90
9175;DHT22;54374;50.196;8.050;2022-08-16T08:38:03;22.90;99.90
9175;DHT22;54374;50.196;8.050;2022-08-16T08:40:34;23.00;99.90
9175;DHT22;54374;50.196;8.050;2022-08-16T08:43:02;23.20;99.90
9175;DHT22;54374;50.196;8.050;2022-08-16T08:45:30;23.40;99.90
9175;DHT22;54374;50.196;8.050;2022-08-16T08:47:57;23.40;99.90
9175;DHT22;54374;50.196;8.050;2022-08-16T08:50:25;23.50;99.90
9175;DHT22;54374;50.196;8.050;2022-08-16T08:52:52;23.50;99.90
9175;DHT22;54374;50.196;8.050;2022-08-16T08:55:20;23.60;99.90
9175;DHT22;54374;50.196;8.050;2022-08-16T08:57:49;23.80;99.90
9175;DHT22;54374;50.196;8.050;2022-08-16T09:00:44;23.80;99.90
9175;DHT22;54374;50.196;8.050;2022-08-16T09:03:11;24.20;99.90
9175;DHT22;54374;50.196;8.050;2022-08-16T09:05:40;24.40;99.90
9175;DHT22;54374;50.196;8.050;2022-08-16T09:08:08;24.70;99.90
9175;DHT22;54374;50.196;8.050;2022-08-16T09:10:56;24.80;99.90
9175;DHT22;54374;50.196;8.050;2022-08-16T09:13:25;24.80;99.90
9175;DHT22;54374;50.196;8.050;2022-08-16T09:15:54;24.80;99.90
9175;DHT22;54374;50.196;8.050;2022-08-16T09:18:22;25.00;99.90
9175;DHT22;54374;50.196;8.050;2022-08-16T09:20:50;24.90;99.90
9175;DHT22;54374;50.196;8.050;2022-08-16T09:23:18;24.90;99.90
9175;DHT22;54374;50.196;8.050;2022-08-16T09:25:46;25.00;99.90
9175;DHT22;54374;50.196;8.050;2022-08-16T09:28:16;25.00;99.90
9175;DHT22;54374;50.196;8.050;2022-08-16T09:30:47;24.90;99.90
9175;DHT22;54374;50.196;8.050;2022-08-16T09:33:16;24.70;99.90
9175;DHT22;54374;50.196;8.050;2022-08-16T09:35:45;24.70;99.90
9175;DHT22;54374;50.196;8.050;2022-08-16T09:38:12;24.70;99.90
9175;DHT22;54374;50.196;8.050;2022-08-16T09:40:39;24.70;99.90
9175;DHT22;54374;50.196;8.050;2022-08-16T09:43:07;24.80;99.90
9175;DHT22;54374;50.196;8.050;2022-08-16T09:45:34;24.70;99.90
9175;DHT22;54374;50.196;8.050;2022-08-16T09:48:05;24.50;99.90
9175;DHT22;54374;50.196;8.050;2022-08-16T09:50:33;24.50;99.90
9175;DHT22;54374;50.196;8.050;2022-08-16T09:53:03;24.50;99.90
9175;DHT22;54374;50.196;8.050;2022-08-16T09:55:30;24.40;99.90
9175;DHT22;54374;50.196;8.050;2022-08-16T09:57:57;24.50;99.90
9175;DHT22;54374;50.196;8.050;2022-08-16T10:00:25;24.50;99.90
9175;DHT22;54374;50.196;8.050;2022-08-16T10:02:52;24.40;99.90
9175;DHT22;54374;50.196;8.050;2022-08-16T10:05:19;24.30;99.90
9175;DHT22;54374;50.196;8.050;2022-08-16T10:07:48;24.20;99.90
9175;DHT22;54374;50.196;8.050;2022-08-16T10:10:17;24.10;99.90
9175;DHT22;54374;50.196;8.050;2022-08-16T10:12:45;24.20;99.90
9175;DHT22;54374;50.196;8.050;2022-08-16T10:15:30;24.30;99.90
9175;DHT22;54374;50.196;8.050;2022-08-16T10:17:57;24.50;99.90
9175;DHT22;54374;50.196;8.050;2022-08-16T10:20:24;24.60;99.90
9175;DHT22;54374;50.196;8.050;2022-08-16T10:22:53;24.60;99.90
9175;DHT22;54374;50.196;8.050;2022-08-16T10:25:20;24.50;99.90
9175;DHT22;54374;50.196;8.050;2022-08-16T10:27:48;24.40;99.90
9175;DHT22;54374;50.196;8.050;2022-08-16T10:30:16;24.50;99.90
9175;DHT22;54374;50.196;8.050;2022-08-16T10:32:43;24.40;99.90
9175;DHT22;54374;50.196;8.050;2022-08-16T10:35:11;24.50;99.90
9175;DHT22;54374;50.196;8.050;2022-08-16T10:37:38;24.50;99.90
9175;DHT22;54374;50.196;8.050;2022-08-16T10:40:09;24.40;99.90
9175;DHT22;54374;50.196;8.050;2022-08-16T10:42:36;24.20;99.90
9175;DHT22;54374;50.196;8.050;2022-08-16T10:45:04;24.10;99.90
9175;DHT22;54374;50.196;8.050;2022-08-16T10:47:31;24.20;99.90
9175;DHT22;54374;50.196;8.050;2022-08-16T10:49:58;24.30;99.90
9175;DHT22;54374;50.196;8.050;2022-08-16T10:52:25;24.30;99.90
9175;DHT22;54374;50.196;8.050;2022-08-16T10:54:52;24.30;99.90
9175;DHT22;54374;50.196;8.050;2022-08-16T10:57:20;24.40;99.90
9175;DHT22;54374;50.196;8.050;2022-08-16T10:59:47;24.80;99.90
9175;DHT22;54374;50.196;8.050;2022-08-16T11:02:14;25.10;99.90
9175;DHT22;54374;50.196;8.050;2022-08-16T11:04:41;25.40;99.90
9175;DHT22;54374;50.196;8.050;2022-08-16T11:07:08;25.70;99.90
9175;DHT22;54374;50.196;8.050;2022-08-16T11:09:35;26.10;99.90
9175;DHT22;54374;50.196;8.050;2022-08-16T11:12:03;26.20;99.90
9175;DHT22;54374;50.196;8.050;2022-08-16T11:14:32;26.20;99.90
9175;DHT22;54374;50.196;8.050;2022-08-16T11:17:00;26.30;99.90
9175;DHT22;54374;50.196;8.050;2022-08-16T11:19:28;26.40;99.90
9175;DHT22;54374;50.196;8.050;2022-08-16T11:21:55;26.20;99.90
9175;DHT22;54374;50.196;8.050;2022-08-16T11:24:22;26.10;99.90
9175;DHT22;54374;50.196;8.050;2022-08-16T11:26:49;26.10;99.90
9175;DHT22;54374;50.196;8.050;2022-08-16T11:29:17;26.20;99.90
9175;DHT22;54374;50.196;8.050;2022-08-16T11:31:45;26.20;99.90
9175;DHT22;54374;50.196;8.050;2022-08-16T11:34:14;26.30;99.90
9175;DHT22;54374;50.196;8.050;2022-08-16T11:36:41;26.50;99.90
9175;DHT22;54374;50.196;8.050;2022-08-16T11:39:08;26.60;99.90
9175;DHT22;54374;50.196;8.050;2022-08-16T11:41:35;26.70;99.90
9175;DHT22;54374;50.196;8.050;2022-08-16T11:44:04;26.50;99.90
9175;DHT22;54374;50.196;8.050;2022-08-16T11:46:31;26.40;99.90
9175;DHT22;54374;50.196;8.050;2022-08-16T11:49:02;26.40;99.90
9175;DHT22;54374;50.196;8.050;2022-08-16T11:51:29;26.40;99.90
9175;DHT22;54374;50.196;8.050;2022-08-16T11:53:56;26.40;99.90
9175;DHT22;54374;50.196;8.050;2022-08-16T11:56:23;26.40;99.90
9175;DHT22;54374;50.196;8.050;2022-08-16T11:58:50;26.50;99.90
9175;DHT22;54374;50.196;8.050;2022-08-16T12:01:17;26.70;99.90
9175;DHT22;54374;50.196;8.050;2022-08-16T12:03:44;26.80;99.90
9175;DHT22;54374;50.196;8.050;2022-08-16T12:06:15;26.70;99.90
9175;DHT22;54374;50.196;8.050;2022-08-16T12:08:44;26.60;99.90
9175;DHT22;54374;50.196;8.050;2022-08-16T12:11:12;26.60;99.90
9175;DHT22;54374;50.196;8.050;2022-08-16T12:13:40;26.50;99.90
9175;DHT22;54374;50.196;8.050;2022-08-16T12:16:08;26.50;99.90
9175;DHT22;54374;50.196;8.050;2022-08-16T12:18:36;26.60;99.90
9175;DHT22;54374;50.196;8.050;2022-08-16T12:21:05;26.80;99.90
9175;DHT22;54374;50.196;8.050;2022-08-16T12:23:34;27.00;99.90
9175;DHT22;54374;50.196;8.050;2022-08-16T12:26:01;27.10;99.90
9175;DHT22;54374;50.196;8.050;2022-08-16T12:28:28;27.40;99.90
9175;DHT22;54374;50.196;8.050;2022-08-16T12:30:57;27.40;99.90
9175;DHT22;54374;50.196;8.050;2022-08-16T12:33:24;27.10;99.90
9175;DHT22;54374;50.196;8.050;2022-08-16T12:35:51;26.90;99.90
9175;DHT22;54374;50.196;8.050;2022-08-16T12:38:18;26.90;99.90
9175;DHT22;54374;50.196;8.050;2022-08-16T12:40:48;26.80;99.90
9175;DHT22;54374;50.196;8.050;2022-08-16T12:43:16;26.60;99.90
9175;DHT22;54374;50.196;8.050;2022-08-16T12:45:50;26.60;99.90
9175;DHT22;54374;50.196;8.050;2022-08-16T12:48:19;26.70;99.90
9175;DHT22;54374;50.196;8.050;2022-08-16T12:51:06;26.90;99.90
9175;DHT22;54374;50.196;8.050;2022-08-16T12:53:33;27.00;99.90
9175;DHT22;54374;50.196;8.050;2022-08-16T12:56:02;27.30;99.90
9175;DHT22;54374;50.196;8.050;2022-08-16T12:58:30;27.60;99.90
9175;DHT22;54374;50.196;8.050;2022-08-16T13:00:57;27.60;99.90
9175;DHT22;54374;50.196;8.050;2022-08-16T13:03:24;27.70;99.90
9175;DHT22;54374;50.196;8.050;2022-08-16T13:05:51;27.70;99.90
9175;DHT22;54374;50.196;8.050;2022-08-16T13:24:21;26.70;99.90
9175;DHT22;54374;50.196;8.050;2022-08-16T13:26:49;26.70;99.90
9175;DHT22;54374;50.196;8.050;2022-08-16T13:29:16;26.60;99.90
9175;DHT22;54374;50.196;8.050;2022-08-16T13:31:43;26.60;99.90
9175;DHT22;54374;50.196;8.050;2022-08-16T13:34:10;26.60;99.90
9175;DHT22;54374;50.196;8.050;2022-08-16T13:36:37;26.50;99.90
9175;DHT22;54374;50.196;8.050;2022-08-16T13:39:04;26.40;99.90
9175;DHT22;54374;50.196;8.050;2022-08-16T13:41:33;26.50;99.90
9175;DHT22;54374;50.196;8.050;2022-08-16T13:44:00;26.40;99.90
9175;DHT22;54374;50.196;8.050;2022-08-16T13:46:28;26.40;99.90
9175;DHT22;54374;50.196;8.050;2022-08-16T13:48:57;26.40;99.90
9175;DHT22;54374;50.196;8.050;2022-08-16T13:51:25;26.50;99.90
9175;DHT22;54374;50.196;8.050;2022-08-16T13:53:54;26.40;99.90
9175;DHT22;54374;50.196;8.050;2022-08-16T13:56:22;26.30;99.90
9175;DHT22;54374;50.196;8.050;2022-08-16T13:58:51;26.30;99.90
9175;DHT22;54374;50.196;8.050;2022-08-16T14:01:18;26.30;99.90
9175;DHT22;54374;50.196;8.050;2022-08-16T14:03:45;26.30;99.90
9175;DHT22;54374;50.196;8.050;2022-08-16T14:06:13;26.30;99.90
9175;DHT22;54374;50.196;8.050;2022-08-16T14:08:41;26.40;99.90
9175;DHT22;54374;50.196;8.050;2022-08-16T14:11:10;26.50;99.90
9175;DHT22;54374;50.196;8.050;2022-08-16T14:13:37;26.70;99.60
9175;DHT22;54374;50.196;8.050;2022-08-16T14:16:06;26.60;99.90
9175;DHT22;54374;50.196;8.050;2022-08-16T14:18:33;26.80;99.50
9175;DHT22;54374;50.196;8.050;2022-08-16T14:21:00;26.80;99.90
9175;DHT22;54374;50.196;8.050;2022-08-16T14:23:29;26.70;99.90
9175;DHT22;54374;50.196;8.050;2022-08-16T14:25:56;26.80;99.90
9175;DHT22;54374;50.196;8.050;2022-08-16T14:28:23;26.80;99.90
9175;DHT22;54374;50.196;8.050;2022-08-16T14:30:50;26.90;99.90
9175;DHT22;54374;50.196;8.050;2022-08-16T14:33:18;26.90;99.90
9175;DHT22;54374;50.196;8.050;2022-08-16T14:35:45;26.90;99.90
9175;DHT22;54374;50.196;8.050;2022-08-16T14:38:12;26.90;99.90
9175;DHT22;54374;50.196;8.050;2022-08-16T14:40:40;26.90;99.60
9175;DHT22;54374;50.196;8.050;2022-08-16T14:43:08;26.90;99.50
9175;DHT22;54374;50.196;8.050;2022-08-16T14:45:35;27.00;99.20
9175;DHT22;54374;50.196;8.050;2022-08-16T14:48:03;27.10;99.90
9175;DHT22;54374;50.196;8.050;2022-08-16T14:50:31;27.20;99.60
9175;DHT22;54374;50.196;8.050;2022-08-16T14:53:00;27.30;99.00
9175;DHT22;54374;50.196;8.050;2022-08-16T14:55:29;27.30;98.70
9175;DHT22;54374;50.196;8.050;2022-08-16T14:57:57;27.20;98.70
9175;DHT22;54374;50.196;8.050;2022-08-16T15:00:26;26.90;99.00
9175;DHT22;54374;50.196;8.050;2022-08-16T15:02:57;26.90;99.00
9175;DHT22;54374;50.196;8.050;2022-08-16T15:05:26;26.70;99.60
9175;DHT22;54374;50.196;8.050;2022-08-16T15:07:55;26.60;99.40
9175;DHT22;54374;50.196;8.050;2022-08-16T15:10:24;26.60;99.50
9175;DHT22;54374;50.196;8.050;2022-08-16T15:12:52;26.50;99.70
9175;DHT22;54374;50.196;8.050;2022-08-16T15:15:22;26.60;99.20
9175;DHT22;54374;50.196;8.050;2022-08-16T15:17:49;26.50;99.30
9175;DHT22;54374;50.196;8.050;2022-08-16T15:20:16;26.40;98.90
9175;DHT22;54374;50.196;8.050;2022-08-16T15:22:45;26.50;99.30
9175;DHT22;54374;50.196;8.050;2022-08-16T15:25:22;26.40;99.70
9175;DHT22;54374;50.196;8.050;2022-08-16T15:27:50;26.30;99.90
9175;DHT22;54374;50.196;8.050;2022-08-16T15:30:19;26.30;98.80
9175;DHT22;54374;50.196;8.050;2022-08-16T15:32:47;26.50;98.50
9175;DHT22;54374;50.196;8.050;2022-08-16T15:35:15;26.40;98.20
9175;DHT22;54374;50.196;8.050;2022-08-16T15:37:42;26.60;98.30
9175;DHT22;54374;50.196;8.050;2022-08-16T15:40:12;26.60;98.30
9175;DHT22;54374;50.196;8.050;2022-08-16T15:42:46;26.70;98.30
9175;DHT22;54374;50.196;8.050;2022-08-16T15:45:13;26.60;98.20
9175;DHT22;54374;50.196;8.050;2022-08-16T15:48:01;26.70;97.90
9175;DHT22;54374;50.196;8.050;2022-08-16T15:50:28;26.80;97.90
9175;DHT22;54374;50.196;8.050;2022-08-16T15:52:56;26.80;98.60
9175;DHT22;54374;50.196;8.050;2022-08-16T15:55:23;26.80;98.70
9175;DHT22;54374;50.196;8.050;2022-08-16T15:57:52;26.90;98.60
9175;DHT22;54374;50.196;8.050;2022-08-16T16:00:19;26.70;98.70
9175;DHT22;54374;50.196;8.050;2022-08-16T16:02:47;26.60;98.30
9175;DHT22;54374;50.196;8.050;2022-08-16T16:05:14;26.50;98.50
9175;DHT22;54374;50.196;8.050;2022-08-16T16:07:41;26.50;98.20
9175;DHT22;54374;50.196;8.050;2022-08-16T16:10:09;26.40;98.30
9175;DHT22;54374;50.196;8.050;2022-08-16T16:12:36;26.50;98.40
9175;DHT22;54374;50.196;8.050;2022-08-16T16:15:05;26.40;98.50
9175;DHT22;54374;50.196;8.050;2022-08-16T16:17:32;26.40;98.30
9175;DHT22;54374;50.196;8.050;2022-08-16T16:20:00;26.40;98.50
9175;DHT22;54374;50.196;8.050;2022-08-16T16:22:27;26.40;97.80
9175;DHT22;54374;50.196;8.050;2022-08-16T16:24:54;26.50;98.50
9175;DHT22;54374;50.196;8.050;2022-08-16T16:27:21;26.40;98.70
9175;DHT22;54374;50.196;8.050;2022-08-16T16:29:48;26.40;98.20
9175;DHT22;54374;50.196;8.050;2022-08-16T16:32:17;26.40;98.20
9175;DHT22;54374;50.196;8.050;2022-08-16T16:34:44;26.30;98.00
9175;DHT22;54374;50.196;8.050;2022-08-16T16:37:11;26.30;98.20
9175;DHT22;54374;50.196;8.050;2022-08-16T16:39:38;26.30;98.40
9175;DHT22;54374;50.196;8.050;2022-08-16T16:42:06;26.10;98.20
9175;DHT22;54374;50.196;8.050;2022-08-16T16:44:36;26.10;97.90
9175;DHT22;54374;50.196;8.050;2022-08-16T16:47:03;26.10;98.60
9175;DHT22;54374;50.196;8.050;2022-08-16T16:49:32;26.00;97.70
9175;DHT22;54374;50.196;8.050;2022-08-16T16:51:59;26.00;97.80
9175;DHT22;54374;50.196;8.050;2022-08-16T16:54:27;26.00;98.00
9175;DHT22;54374;50.196;8.050;2022-08-16T16:56:54;26.00;97.80
9175;DHT22;54374;50.196;8.050;2022-08-16T16:59:21;25.90;98.40
9175;DHT22;54374;50.196;8.050;2022-08-16T17:01:50;25.90;98.10
9175;DHT22;54374;50.196;8.050;2022-08-16T17:04:19;25.80;98.10
9175;DHT22;54374;50.196;8.050;2022-08-16T17:06:50;25.80;98.50
9175;DHT22;54374;50.196;8.050;2022-08-16T17:09:17;25.80;98.40
9175;DHT22;54374;50.196;8.050;2022-08-16T17:11:44;25.70;98.50